Portada
METAR-TAF:

METAR-TAF

Aeroports :

Aeroport Internacional Ángel S. Adami

Montevideo, Uruguai

latitud: 34-47S, longitud: 056-15W, altitud: 53 m

Observació

L'informe es va fer fa 29 minuts, a les 20:00 UTC
Vent 22 kt del Sud
Temperatura 19°C
Humitat 64%
Pressió 1017 hPa
Visibilitat 10 km o més
Escasses núvols a una alçada de 1600 ft

METAR: SUAA 222000Z 17022KT 9999 FEW016 19/12 Q1017

Hora: 17:29 (20:29 UTC)

Pronòstic

L'informe es va fer fa 2 hores i 59 minuts, a les 17:30 UTC
Pronòstic vàlid del 22 a les 18 UTC al 23 a les 18 UTC
Vent 15 kt del Sud amb ràfegues de 25 kt
Visibilitat 10 km o més
Cel ennuvolat a una alçada de 900 ft
Cel ennuvolat a una alçada de 7000 ft
Evolucionant progressivament
l' 22 a les 20 UTC al 22 a les 22 UTC
Visibilitat 10 km o més
Núvols disperses a una alçada de 3000 ft

TAF: SUAA 221730Z 2218/2318 17015G25KT 9999 BKN009 BKN070 TX20/2318Z TN15/2309Z BECMG 2220/2222 9999 SCT030

Observacions i pronòstics meteorològics de més de 4000 aeroports (METAR i TAF).

Les estacions disponibles són els punts grocs i vermells al mapa.

Posi el ratolí al punt desitjat per veure el nom de l'estació.

Feu clic per veure les observacions i els pronòstics meteorològics.

Per canviar el mapa: feu clic els botons verds amb una creu de color negre per apropar; al botó verd amb un guió per allunyar la imatge; o en les fletxes verdes per a mapes adjacents.


METAR-TAF: